Morgan Ray — WDF6085 — position and weather

sailwx.info

Track history (hours):
 
Tides and Currents Weather Stations Pressure Air Temp Water Temp Dewpoint Dewpoint Depression Visibility Wind Speed Wind Dir Waves Ship Positions

Morgan Ray

Owner: Daigle Towing Service LLC., Belle Chasse, LA. More information available from US FCC via Universal Licensing System and Coast Guard Vessel Documentation Center.

Last reported at 2014-Dec-19 19:04 UTC. Time now 2014-Dec-20 05:10 UTC.
Position N 29°60' W 090°01'.

Length 20 m; draft 2 m.

Type: Tug. MMSI: 367470470.

Date/timePositionNaut miles runAvg speedWind from/ knotsBaromVisibWave heightAir tempDewpointWater temp
2014-Dec-19 19:04N 29°60' W 090°01'3 0.5
2014-Dec-19 12:03N 29°56' W 090°00'2 0.8
2014-Dec-19 09:32N 29°58' W 090°02'2 1.7
2014-Dec-19 08:33N 29°60' W 090°01'0 0.3
2014-Dec-19 07:33N 29°60' W 090°01'1 1.4
2014-Dec-19 06:33N 29°58' W 090°01'1 1.1
2014-Dec-19 05:33N 29°57' W 090°01'1 1.2
2014-Dec-19 04:33N 29°59' W 090°01'2 2.4
2014-Dec-19 03:33N 29°60' W 089°59'3 2.9
2014-Dec-19 02:30N 29°58' W 090°02'0 0.2
2014-Dec-19 01:18N 29°58' W 090°02'0 0.5
2014-Dec-19 00:28N 29°58' W 090°02'2 0.2
2014-Dec-18 14:33N 29°57' W 090°03'0 0.0
2014-Dec-18 13:18N 29°57' W 090°03'1 1.1
2014-Dec-18 12:29N 29°57' W 090°02'3 0.3
2014-Dec-18 01:27N 29°56' W 089°59'3 3.3
2014-Dec-18 00:29N 29°58' W 090°02'2 1.8
2014-Dec-17 23:33N 29°60' W 090°01'1 0.7
2014-Dec-17 22:33N 29°60' W 090°00'2 0.8
2014-Dec-17 20:18N 30°00' W 089°58'8 0.4
2014-Dec-17 01:28N 29°54' W 090°05'0 0.0
2014-Dec-17 00:17N 29°54' W 090°05'0 0.0
2014-Dec-16 23:33N 29°54' W 090°05'0 0.0
2014-Dec-16 22:32N 29°54' W 090°05'0 0.0
2014-Dec-16 21:33N 29°54' W 090°05'0 0.0
2014-Dec-16 20:32N 29°54' W 090°05'0 0.0
2014-Dec-16 19:33N 29°54' W 090°05'0 0.0
2014-Dec-16 18:33N 29°54' W 090°05'0 0.0
2014-Dec-16 17:30N 29°54' W 090°05'0 0.0
2014-Dec-16 16:32N 29°54' W 090°05'0 0.0
2014-Dec-16 15:32N 29°54' W 090°05'0 0.0
2014-Dec-16 14:33N 29°54' W 090°05'0 0.0
2014-Dec-16 13:25N 29°54' W 090°05'0 0.0
2014-Dec-16 12:33N 29°54' W 090°05'0 0.0
2014-Dec-15 18:15N 29°54' W 090°05'0 0.0
2014-Dec-15 17:23N 29°54' W 090°05'0 0.0
2014-Dec-15 16:29N 29°54' W 090°05'0 0.0
2014-Dec-15 15:31N 29°54' W 090°05'0 0.0
2014-Dec-15 14:32N 29°54' W 090°05'0 0.0
2014-Dec-15 13:33N 29°54' W 090°05'0 0.0
2014-Dec-15 12:33N 29°54' W 090°05'0 0.0
2014-Dec-15 11:29N 29°54' W 090°05'0 0.0
2014-Dec-15 10:33N 29°54' W 090°05'0 0.0
2014-Dec-15 09:27N 29°54' W 090°05'0 0.0
2014-Dec-15 08:32N 29°54' W 090°05'0 0.0
2014-Dec-15 07:33N 29°54' W 090°05'0 0.0
2014-Dec-15 06:29N 29°54' W 090°05'0 0.0
2014-Dec-15 05:31N 29°54' W 090°05'0 0.0
2014-Dec-15 04:31N 29°54' W 090°05'0 0.0
2014-Dec-15 03:33N 29°54' W 090°05'0 0.0
2014-Dec-15 02:24N 29°54' W 090°05'0 0.0
2014-Dec-15 01:17N 29°54' W 090°05'0 0.0
2014-Dec-14 12:08N 29°54' W 090°05'0 0.0
2014-Dec-14 11:23N 29°54' W 090°05'0 0.0
2014-Dec-14 09:32N 29°54' W 090°05'0 0.0
2014-Dec-14 08:32N 29°54' W 090°05'0 0.0
2014-Dec-14 07:24N 29°54' W 090°05'0 0.0
2014-Dec-14 06:23N 29°54' W 090°05'0 0.0
2014-Dec-14 05:31N 29°54' W 090°05'0 0.0
2014-Dec-14 04:33N 29°54' W 090°05'0 0.0
2014-Dec-14 03:27N 29°54' W 090°05'0 0.0
2014-Dec-14 02:33N 29°54' W 090°05'0 0.0
2014-Dec-14 01:27N 29°54' W 090°05'0 0.0
2014-Dec-14 00:32N 29°54' W 090°05'0 0.0
2014-Dec-13 23:30N 29°54' W 090°05'0 0.0
2014-Dec-13 22:24N 29°54' W 090°05'0 0.0
2014-Dec-13 21:33N 29°54' W 090°05'0 0.0
2014-Dec-13 20:33N 29°54' W 090°05'0 0.0
2014-Dec-13 19:31N 29°54' W 090°05'0 0.0
2014-Dec-13 18:32N 29°54' W 090°05'0 0.0
2014-Dec-13 17:32N 29°54' W 090°05'1 0.7
2014-Dec-13 16:27N 29°55' W 090°05'4 4.0
2014-Dec-13 15:29N 29°57' W 090°02'1 0.7
2014-Dec-13 14:26N 29°58' W 090°02'5 0.2
2014-Dec-12 17:29N 29°54' W 090°05'0 0.0
2014-Dec-12 15:12N 29°54' W 090°05'3 1.4
2014-Dec-12 13:09N 29°51' W 090°04'0 0.2
2014-Dec-12 12:03N 29°51' W 090°04'3 5.2
2014-Dec-12 11:32N 29°54' W 090°05'0 0.0
2014-Dec-12 09:19N 29°54' W 090°05'0 0.0
2014-Dec-12 08:22N 29°54' W 090°05'0 0.0
2014-Dec-12 07:32N 29°54' W 090°05'0 0.0
2014-Dec-12 06:32N 29°54' W 090°05'0 0.0
2014-Dec-12 05:32N 29°54' W 090°05'0 0.0
2014-Dec-12 04:33N 29°54' W 090°05'0 0.0
2014-Dec-12 03:27N 29°54' W 090°05'0 0.0
2014-Dec-12 02:17N 29°54' W 090°05'0 0.0
2014-Dec-12 01:27N 29°54' W 090°05'0 0.0
2014-Dec-12 00:31N 29°54' W 090°05'  
Track history (hours):
 
Tides and Currents Weather Stations Pressure Air Temp Water Temp Dewpoint Dewpoint Depression Visibility Wind Speed Wind Dir Waves Ship Positions

Morgan Ray

Owner: Daigle Towing Service LLC., Belle Chasse, LA. More information available from US FCC via Universal Licensing System and Coast Guard Vessel Documentation Center.

Last reported at 2014-Dec-19 19:04 UTC. Time now 2014-Dec-20 05:10 UTC.
Position N 29°60' W 090°01'.

Length 20 m; draft 2 m.

Type: Tug. MMSI: 367470470.

Date/timePositionNaut miles runAvg speedWind from/ knotsBaromVisibWave heightAir tempDewpointWater temp
2014-Dec-19 19:04N 29°60' W 090°01'3 0.5
2014-Dec-19 12:03N 29°56' W 090°00'2 0.8
2014-Dec-19 09:32N 29°58' W 090°02'2 1.7
2014-Dec-19 08:33N 29°60' W 090°01'0 0.3
2014-Dec-19 07:33N 29°60' W 090°01'1 1.4
2014-Dec-19 06:33N 29°58' W 090°01'1 1.1
2014-Dec-19 05:33N 29°57' W 090°01'1 1.2
2014-Dec-19 04:33N 29°59' W 090°01'2 2.4
2014-Dec-19 03:33N 29°60' W 089°59'3 2.9
2014-Dec-19 02:30N 29°58' W 090°02'0 0.2
2014-Dec-19 01:18N 29°58' W 090°02'0 0.5
2014-Dec-19 00:28N 29°58' W 090°02'2 0.2
2014-Dec-18 14:33N 29°57' W 090°03'0 0.0
2014-Dec-18 13:18N 29°57' W 090°03'1 1.1
2014-Dec-18 12:29N 29°57' W 090°02'3 0.3
2014-Dec-18 01:27N 29°56' W 089°59'3 3.3
2014-Dec-18 00:29N 29°58' W 090°02'2 1.8
2014-Dec-17 23:33N 29°60' W 090°01'1 0.7
2014-Dec-17 22:33N 29°60' W 090°00'2 0.8
2014-Dec-17 20:18N 30°00' W 089°58'8 0.4
2014-Dec-17 01:28N 29°54' W 090°05'0 0.0
2014-Dec-17 00:17N 29°54' W 090°05'0 0.0
2014-Dec-16 23:33N 29°54' W 090°05'0 0.0
2014-Dec-16 22:32N 29°54' W 090°05'0 0.0
2014-Dec-16 21:33N 29°54' W 090°05'0 0.0
2014-Dec-16 20:32N 29°54' W 090°05'0 0.0
2014-Dec-16 19:33N 29°54' W 090°05'0 0.0
2014-Dec-16 18:33N 29°54' W 090°05'0 0.0
2014-Dec-16 17:30N 29°54' W 090°05'0 0.0
2014-Dec-16 16:32N 29°54' W 090°05'0 0.0
2014-Dec-16 15:32N 29°54' W 090°05'0 0.0
2014-Dec-16 14:33N 29°54' W 090°05'0 0.0
2014-Dec-16 13:25N 29°54' W 090°05'0 0.0
2014-Dec-16 12:33N 29°54' W 090°05'0 0.0
2014-Dec-15 18:15N 29°54' W 090°05'0 0.0
2014-Dec-15 17:23N 29°54' W 090°05'0 0.0
2014-Dec-15 16:29N 29°54' W 090°05'0 0.0
2014-Dec-15 15:31N 29°54' W 090°05'0 0.0
2014-Dec-15 14:32N 29°54' W 090°05'0 0.0
2014-Dec-15 13:33N 29°54' W 090°05'0 0.0
2014-Dec-15 12:33N 29°54' W 090°05'0 0.0
2014-Dec-15 11:29N 29°54' W 090°05'0 0.0
2014-Dec-15 10:33N 29°54' W 090°05'0 0.0
2014-Dec-15 09:27N 29°54' W 090°05'0 0.0
2014-Dec-15 08:32N 29°54' W 090°05'0 0.0
2014-Dec-15 07:33N 29°54' W 090°05'0 0.0
2014-Dec-15 06:29N 29°54' W 090°05'0 0.0
2014-Dec-15 05:31N 29°54' W 090°05'0 0.0
2014-Dec-15 04:31N 29°54' W 090°05'0 0.0
2014-Dec-15 03:33N 29°54' W 090°05'0 0.0
2014-Dec-15 02:24N 29°54' W 090°05'0 0.0
2014-Dec-15 01:17N 29°54' W 090°05'0 0.0
2014-Dec-14 12:08N 29°54' W 090°05'0 0.0
2014-Dec-14 11:23N 29°54' W 090°05'0 0.0
2014-Dec-14 09:32N 29°54' W 090°05'0 0.0
2014-Dec-14 08:32N 29°54' W 090°05'0 0.0
2014-Dec-14 07:24N 29°54' W 090°05'0 0.0
2014-Dec-14 06:23N 29°54' W 090°05'0 0.0
2014-Dec-14 05:31N 29°54' W 090°05'0 0.0
2014-Dec-14 04:33N 29°54' W 090°05'0 0.0
2014-Dec-14 03:27N 29°54' W 090°05'0 0.0
2014-Dec-14 02:33N 29°54' W 090°05'0 0.0
2014-Dec-14 01:27N 29°54' W 090°05'0 0.0
2014-Dec-14 00:32N 29°54' W 090°05'0 0.0
2014-Dec-13 23:30N 29°54' W 090°05'0 0.0
2014-Dec-13 22:24N 29°54' W 090°05'0 0.0
2014-Dec-13 21:33N 29°54' W 090°05'0 0.0
2014-Dec-13 20:33N 29°54' W 090°05'0 0.0
2014-Dec-13 19:31N 29°54' W 090°05'0 0.0
2014-Dec-13 18:32N 29°54' W 090°05'0 0.0
2014-Dec-13 17:32N 29°54' W 090°05'1 0.7
2014-Dec-13 16:27N 29°55' W 090°05'4 4.0
2014-Dec-13 15:29N 29°57' W 090°02'1 0.7
2014-Dec-13 14:26N 29°58' W 090°02'5 0.2
2014-Dec-12 17:29N 29°54' W 090°05'0 0.0
2014-Dec-12 15:12N 29°54' W 090°05'3 1.4
2014-Dec-12 13:09N 29°51' W 090°04'0 0.2
2014-Dec-12 12:03N 29°51' W 090°04'3 5.2
2014-Dec-12 11:32N 29°54' W 090°05'0 0.0
2014-Dec-12 09:19N 29°54' W 090°05'0 0.0
2014-Dec-12 08:22N 29°54' W 090°05'0 0.0
2014-Dec-12 07:32N 29°54' W 090°05'0 0.0
2014-Dec-12 06:32N 29°54' W 090°05'0 0.0
2014-Dec-12 05:32N 29°54' W 090°05'0 0.0
2014-Dec-12 04:33N 29°54' W 090°05'0 0.0
2014-Dec-12 03:27N 29°54' W 090°05'0 0.0
2014-Dec-12 02:17N 29°54' W 090°05'0 0.0
2014-Dec-12 01:27N 29°54' W 090°05'0 0.0
2014-Dec-12 00:31N 29°54' W 090°05'  

Dump ship's entire track history